createdAt,value
2023-02-19T00:03:38.179Z,96.65
2023-02-19T00:09:00.799Z,97.09
2023-02-19T00:14:22.653Z,95.91
2023-02-19T00:19:44.545Z,95.64
2023-02-19T00:25:06.484Z,95.00
2023-02-19T00:30:28.484Z,94.87
2023-02-19T00:35:50.282Z,94.09
2023-02-19T00:41:13.711Z,93.23
2023-02-19T00:46:39.159Z,92.37
2023-02-19T00:52:01.046Z,91.90
2023-02-19T00:57:22.916Z,92.20
2023-02-19T01:02:44.939Z,92.25
2023-02-19T01:08:06.766Z,92.08
2023-02-19T01:13:29.145Z,91.62
2023-02-19T01:18:51.599Z,90.43
2023-02-19T01:24:13.476Z,91.51
2023-02-19T01:29:35.460Z,90.06
2023-02-19T01:34:57.395Z,89.76
2023-02-19T01:40:19.311Z,89.18
2023-02-19T01:45:45.057Z,89.00
2023-02-19T01:51:17.137Z,88.59
2023-02-19T01:56:42.186Z,88.58
2023-02-19T02:02:04.343Z,88.62
2023-02-19T02:07:26.793Z,88.83
2023-02-19T02:12:56.898Z,88.64
2023-02-19T02:18:29.203Z,88.85
2023-02-19T02:24:34.192Z,89.12
2023-02-19T02:30:14.889Z,89.00
2023-02-19T02:35:45.060Z,90.12
2023-02-19T02:41:07.152Z,90.96
2023-02-19T02:46:35.320Z,90.20
2023-02-19T02:51:58.887Z,91.67
2023-02-19T02:57:20.947Z,92.54
2023-02-19T03:02:44.112Z,92.60
2023-02-19T03:08:12.743Z,92.79
2023-02-19T03:13:38.321Z,92.76
2023-02-19T03:19:01.324Z,94.32
2023-02-19T03:24:29.783Z,93.54
2023-02-19T03:29:54.565Z,93.26
2023-02-19T03:35:24.320Z,94.17
2023-02-19T03:40:55.786Z,94.27
2023-02-19T03:46:25.640Z,94.64
2023-02-19T03:51:54.563Z,93.30
2023-02-19T03:57:22.401Z,94.72
2023-02-19T04:02:58.489Z,93.17
2023-02-19T04:08:23.999Z,93.76
2023-02-19T04:13:51.015Z,94.38
2023-02-19T04:19:18.849Z,94.48
2023-02-19T04:24:47.553Z,94.16
2023-02-19T04:30:12.606Z,94.00
2023-02-19T04:35:34.515Z,95.25
2023-02-19T04:40:56.522Z,95.41
2023-02-19T04:46:18.429Z,94.67
2023-02-19T04:51:41.080Z,94.52
2023-02-19T04:57:03.139Z,94.54
2023-02-19T05:02:25.002Z,94.34
2023-02-19T05:07:46.822Z,95.03
2023-02-19T05:13:08.860Z,94.73
2023-02-19T05:18:31.759Z,95.74
2023-02-19T05:23:53.633Z,95.17
2023-02-19T05:29:15.556Z,95.78
2023-02-19T05:34:37.397Z,94.92
2023-02-19T05:39:59.397Z,95.41
2023-02-19T05:45:21.269Z,95.27
2023-02-19T05:50:43.137Z,95.69
2023-02-19T05:56:05.407Z,97.19
2023-02-19T06:01:28.567Z,96.49
2023-02-19T06:06:50.622Z,95.94
2023-02-19T06:12:12.475Z,96.01
2023-02-19T06:17:34.803Z,94.81
2023-02-19T06:22:56.653Z,95.04
2023-02-19T06:28:18.540Z,94.41
2023-02-19T06:33:40.723Z,94.92
2023-02-19T06:39:03.991Z,95.53
2023-02-19T06:44:26.051Z,94.20
2023-02-19T06:49:48.000Z,93.39
2023-02-19T06:55:09.924Z,93.10
2023-02-19T07:00:31.838Z,92.29
2023-02-19T07:05:54.147Z,93.03
2023-02-19T07:11:16.202Z,93.16
2023-02-19T07:16:38.353Z,93.23
2023-02-19T07:22:00.260Z,92.67
2023-02-19T07:27:22.116Z,91.90
2023-02-19T07:32:43.985Z,91.51
2023-02-19T07:38:05.842Z,91.52
2023-02-19T07:43:32.548Z,90.88
2023-02-19T07:48:54.725Z,91.02
2023-02-19T07:54:16.589Z,88.33
2023-02-19T07:59:38.461Z,87.60
2023-02-19T08:05:00.413Z,86.37
2023-02-19T08:10:22.317Z,86.66
2023-02-19T08:15:44.997Z,86.63
2023-02-19T08:21:07.108Z,86.28
2023-02-19T08:26:29.126Z,85.37
2023-02-19T08:31:50.990Z,86.35
2023-02-19T08:37:12.976Z,84.79
2023-02-19T08:42:34.809Z,84.60
2023-02-19T08:47:56.711Z,84.63
2023-02-19T08:53:18.561Z,84.02
2023-02-19T08:58:41.349Z,82.79
2023-02-19T09:04:03.214Z,83.40
2023-02-19T09:09:25.093Z,82.52
2023-02-19T09:14:46.996Z,82.50
2023-02-19T09:20:09.187Z,81.75
2023-02-19T09:25:31.036Z,80.42
2023-02-19T09:30:53.084Z,79.78
2023-02-19T09:36:16.380Z,78.63
2023-02-19T09:41:48.043Z,78.53
2023-02-19T09:47:25.214Z,77.55
2023-02-19T09:52:54.757Z,77.76
2023-02-19T09:58:39.797Z,71.90
2023-02-19T10:04:01.800Z,68.71
2023-02-19T10:09:26.725Z,59.74
2023-02-19T10:14:52.181Z,57.83
2023-02-19T10:20:23.952Z,53.68
2023-02-19T10:25:53.498Z,64.04
2023-02-19T10:31:21.788Z,64.57
2023-02-19T10:36:43.787Z,64.55
2023-02-19T10:42:05.913Z,63.77
2023-02-19T10:47:31.201Z,62.50
2023-02-19T10:52:55.851Z,59.11
2023-02-19T10:58:26.388Z,57.93
2023-02-19T11:03:53.565Z,59.74
2023-02-19T11:09:39.282Z,58.67
2023-02-19T11:15:32.250Z,58.55
2023-02-19T11:21:01.964Z,60.39
2023-02-19T11:26:27.765Z,60.49
2023-02-19T11:31:49.702Z,60.86
2023-02-19T11:37:16.878Z,60.80
2023-02-19T11:42:57.891Z,60.88
2023-02-19T11:48:36.207Z,60.68
2023-02-19T11:54:18.341Z,59.74
2023-02-19T12:00:14.704Z,58.74
2023-02-19T12:05:50.482Z,58.26
2023-02-19T12:11:35.743Z,57.63
2023-02-19T12:17:21.170Z,57.87
2023-02-19T12:23:05.339Z,57.83
2023-02-19T12:28:48.192Z,58.29
2023-02-19T12:34:31.325Z,60.14
2023-02-19T12:40:43.992Z,60.31
2023-02-19T12:46:19.939Z,61.94
2023-02-19T12:51:48.705Z,62.41
2023-02-19T12:57:24.752Z,61.47
2023-02-19T13:02:54.766Z,60.94
2023-02-19T13:09:04.738Z,60.38
2023-02-19T13:14:58.699Z,58.55
2023-02-19T13:20:25.403Z,59.25
2023-02-19T13:26:08.556Z,58.14
2023-02-19T13:31:39.411Z,57.44
2023-02-19T13:37:02.344Z,57.47
2023-02-19T13:42:31.272Z,57.07
2023-02-19T13:47:55.924Z,57.65
2023-02-19T13:53:42.485Z,56.93
2023-02-19T13:59:39.221Z,56.94
2023-02-19T14:05:10.713Z,57.14
2023-02-19T14:10:57.013Z,56.99
2023-02-19T14:16:36.778Z,57.94
2023-02-19T14:21:58.665Z,58.00
2023-02-19T14:27:21.477Z,58.21
2023-02-19T14:32:47.436Z,56.91
2023-02-19T14:38:38.146Z,55.86
2023-02-19T14:44:02.125Z,56.21
2023-02-19T14:49:27.282Z,56.22
2023-02-19T14:54:56.135Z,55.55
2023-02-19T15:00:30.241Z,56.31
2023-02-19T15:05:58.877Z,56.02
2023-02-19T15:11:23.563Z,56.77
2023-02-19T15:16:45.733Z,57.20
2023-02-19T15:22:07.604Z,57.53
2023-02-19T15:27:29.760Z,57.48
2023-02-19T15:32:53.697Z,57.40
2023-02-19T15:38:15.912Z,57.32
2023-02-19T15:43:54.327Z,57.89
2023-02-19T15:49:29.361Z,58.06
2023-02-19T15:55:04.165Z,58.39
2023-02-19T16:00:54.261Z,57.97
2023-02-19T16:06:18.081Z,59.05
2023-02-19T16:11:49.757Z,59.19
2023-02-19T16:17:17.940Z,60.53
2023-02-19T16:22:41.938Z,61.09
2023-02-19T16:28:21.672Z,60.89
2023-02-19T16:33:48.478Z,61.41
2023-02-19T16:39:16.881Z,62.13
2023-02-19T16:44:38.760Z,62.58
2023-02-19T16:50:03.563Z,61.71
2023-02-19T16:55:27.461Z,62.17
2023-02-19T17:00:49.411Z,61.47
2023-02-19T17:06:12.016Z,61.64
2023-02-19T17:11:34.667Z,61.00
2023-02-19T17:16:56.672Z,60.61
2023-02-19T17:22:18.595Z,60.55
2023-02-19T17:27:40.723Z,60.36
2023-02-19T17:33:02.853Z,59.86
2023-02-19T17:38:24.731Z,59.55
2023-02-19T17:43:46.661Z,59.47
2023-02-19T17:49:12.374Z,58.45
2023-02-19T17:54:34.349Z,58.73
2023-02-19T17:59:56.229Z,58.51
2023-02-19T18:05:18.255Z,57.77
2023-02-19T18:10:40.162Z,58.77
2023-02-19T18:16:02.098Z,58.78
2023-02-19T18:21:24.017Z,58.08
2023-02-19T18:26:45.905Z,57.57
2023-02-19T18:32:07.984Z,57.48
2023-02-19T18:37:30.462Z,56.96
2023-02-19T18:42:52.450Z,57.60
2023-02-19T18:48:14.298Z,57.58
2023-02-19T18:53:36.511Z,57.31
2023-02-19T18:58:58.752Z,56.95
2023-02-19T19:04:20.716Z,57.31
2023-02-19T19:09:42.642Z,57.39
2023-02-19T19:15:04.809Z,57.66
2023-02-19T19:20:26.628Z,57.81
2023-02-19T19:25:48.484Z,57.86
2023-02-19T19:31:12.132Z,58.17
2023-02-19T19:36:34.508Z,57.70
2023-02-19T19:41:56.975Z,58.02
2023-02-19T19:47:19.294Z,58.72
2023-02-19T19:52:41.301Z,58.63
2023-02-19T19:58:03.320Z,58.51
2023-02-19T20:03:25.251Z,58.77
2023-02-19T20:08:48.531Z,59.17
2023-02-19T20:14:10.534Z,59.81
2023-02-19T20:19:32.416Z,58.83
2023-02-19T20:24:54.905Z,59.67
2023-02-19T20:30:18.721Z,58.96
2023-02-19T20:35:40.655Z,59.66
2023-02-19T20:41:02.983Z,59.81
2023-02-19T20:46:24.966Z,59.99
2023-02-19T20:51:52.985Z,60.53
2023-02-19T20:57:15.064Z,60.71
2023-02-19T21:02:37.040Z,61.46
2023-02-19T21:07:59.100Z,61.87
2023-02-19T21:13:21.178Z,61.91
2023-02-19T21:18:43.158Z,62.15
2023-02-19T21:24:05.199Z,62.19
2023-02-19T21:29:27.148Z,62.63
2023-02-19T21:34:49.068Z,62.95
2023-02-19T21:40:12.374Z,63.05
2023-02-19T21:45:34.344Z,63.17
2023-02-19T21:50:56.397Z,63.65
2023-02-19T21:56:26.203Z,64.46
2023-02-19T22:01:48.502Z,64.68
2023-02-19T22:07:10.360Z,65.71
2023-02-19T22:12:32.232Z,66.01
2023-02-19T22:17:54.208Z,65.95
2023-02-19T22:23:16.043Z,66.38
2023-02-19T22:28:38.787Z,66.41
2023-02-19T22:34:00.650Z,66.77
2023-02-19T22:39:26.615Z,66.69
2023-02-19T22:44:48.508Z,67.30
2023-02-19T22:50:20.828Z,67.90
2023-02-19T22:55:42.708Z,68.56
2023-02-19T23:01:04.808Z,68.84
2023-02-19T23:06:34.220Z,69.12
2023-02-19T23:12:05.082Z,69.74
2023-02-19T23:17:27.057Z,69.91
2023-02-19T23:22:48.900Z,70.13
2023-02-19T23:28:10.870Z,71.14
2023-02-19T23:33:32.850Z,71.46
2023-02-19T23:38:54.743Z,72.58
2023-02-19T23:44:17.571Z,74.04
2023-02-19T23:49:39.649Z,76.90
2023-02-19T23:55:01.509Z,77.76
